sensor_id;sensor_type;location;lat;lon;timestamp;P1;durP1;ratioP1;P2;durP2;ratioP2
4698;SDS011;33708;49.466;11.176;2023-09-30T00:00:23;15.20;;;5.27;;
4698;SDS011;33708;49.466;11.176;2023-09-30T00:02:49;15.60;;;5.60;;
4698;SDS011;33708;49.466;11.176;2023-09-30T00:05:15;13.10;;;5.30;;
4698;SDS011;33708;49.466;11.176;2023-09-30T00:07:44;11.37;;;4.90;;
4698;SDS011;33708;49.466;11.176;2023-09-30T00:10:12;15.97;;;4.83;;
4698;SDS011;33708;49.466;11.176;2023-09-30T00:12:39;15.03;;;4.57;;
4698;SDS011;33708;49.466;11.176;2023-09-30T00:15:05;14.23;;;5.60;;
4698;SDS011;33708;49.466;11.176;2023-09-30T00:17:31;18.07;;;4.83;;
4698;SDS011;33708;49.466;11.176;2023-09-30T00:19:56;13.13;;;5.80;;
4698;SDS011;33708;49.466;11.176;2023-09-30T00:22:22;16.70;;;5.80;;
4698;SDS011;33708;49.466;11.176;2023-09-30T00:24:48;12.50;;;5.40;;
4698;SDS011;33708;49.466;11.176;2023-09-30T00:27:13;16.93;;;6.13;;
4698;SDS011;33708;49.466;11.176;2023-09-30T00:29:39;15.20;;;5.93;;
4698;SDS011;33708;49.466;11.176;2023-09-30T00:32:04;20.10;;;6.60;;
4698;SDS011;33708;49.466;11.176;2023-09-30T00:34:34;11.97;;;5.37;;
4698;SDS011;33708;49.466;11.176;2023-09-30T00:37:00;15.73;;;6.10;;
4698;SDS011;33708;49.466;11.176;2023-09-30T00:39:26;19.53;;;6.47;;
4698;SDS011;33708;49.466;11.176;2023-09-30T00:41:55;14.53;;;5.90;;
4698;SDS011;33708;49.466;11.176;2023-09-30T00:44:21;13.00;;;5.97;;
4698;SDS011;33708;49.466;11.176;2023-09-30T00:46:47;16.10;;;6.03;;
4698;SDS011;33708;49.466;11.176;2023-09-30T00:49:13;17.23;;;5.60;;
4698;SDS011;33708;49.466;11.176;2023-09-30T00:51:39;11.10;;;4.90;;
4698;SDS011;33708;49.466;11.176;2023-09-30T00:54:05;13.43;;;5.33;;
4698;SDS011;33708;49.466;11.176;2023-09-30T00:56:31;13.10;;;4.70;;
4698;SDS011;33708;49.466;11.176;2023-09-30T00:58:57;18.00;;;5.33;;
4698;SDS011;33708;49.466;11.176;2023-09-30T01:01:24;12.67;;;4.40;;
4698;SDS011;33708;49.466;11.176;2023-09-30T01:03:51;11.37;;;4.70;;
4698;SDS011;33708;49.466;11.176;2023-09-30T01:06:16;10.93;;;4.57;;
4698;SDS011;33708;49.466;11.176;2023-09-30T01:08:42;11.57;;;5.07;;
4698;SDS011;33708;49.466;11.176;2023-09-30T01:11:08;13.73;;;5.60;;
4698;SDS011;33708;49.466;11.176;2023-09-30T01:13:34;11.07;;;4.60;;
4698;SDS011;33708;49.466;11.176;2023-09-30T01:16:07;13.57;;;4.60;;
4698;SDS011;33708;49.466;11.176;2023-09-30T01:18:37;12.63;;;4.60;;
4698;SDS011;33708;49.466;11.176;2023-09-30T01:21:04;14.83;;;4.80;;
4698;SDS011;33708;49.466;11.176;2023-09-30T01:23:31;9.03;;;4.07;;
4698;SDS011;33708;49.466;11.176;2023-09-30T01:25:57;10.00;;;4.37;;
4698;SDS011;33708;49.466;11.176;2023-09-30T01:28:25;15.40;;;4.50;;
4698;SDS011;33708;49.466;11.176;2023-09-30T01:30:51;10.80;;;4.40;;
4698;SDS011;33708;49.466;11.176;2023-09-30T01:33:17;10.90;;;4.03;;
4698;SDS011;33708;49.466;11.176;2023-09-30T01:35:43;12.40;;;4.43;;
4698;SDS011;33708;49.466;11.176;2023-09-30T01:38:09;10.50;;;3.73;;
4698;SDS011;33708;49.466;11.176;2023-09-30T01:40:35;12.30;;;4.23;;
4698;SDS011;33708;49.466;11.176;2023-09-30T01:43:02;11.80;;;4.80;;
4698;SDS011;33708;49.466;11.176;2023-09-30T01:45:28;13.90;;;5.53;;
4698;SDS011;33708;49.466;11.176;2023-09-30T01:47:54;9.77;;;4.53;;
4698;SDS011;33708;49.466;11.176;2023-09-30T01:50:19;9.90;;;4.00;;
4698;SDS011;33708;49.466;11.176;2023-09-30T01:52:45;9.30;;;4.00;;
4698;SDS011;33708;49.466;11.176;2023-09-30T01:55:11;12.43;;;3.90;;
4698;SDS011;33708;49.466;11.176;2023-09-30T01:57:36;10.90;;;3.87;;
4698;SDS011;33708;49.466;11.176;2023-09-30T02:00:02;11.77;;;4.33;;
4698;SDS011;33708;49.466;11.176;2023-09-30T02:02:29;12.80;;;3.83;;
4698;SDS011;33708;49.466;11.176;2023-09-30T02:04:55;9.50;;;4.20;;
4698;SDS011;33708;49.466;11.176;2023-09-30T02:07:22;8.73;;;4.20;;
4698;SDS011;33708;49.466;11.176;2023-09-30T02:09:47;11.23;;;4.23;;
4698;SDS011;33708;49.466;11.176;2023-09-30T02:12:14;12.40;;;4.87;;
4698;SDS011;33708;49.466;11.176;2023-09-30T02:14:39;11.30;;;3.93;;
4698;SDS011;33708;49.466;11.176;2023-09-30T02:17:05;9.83;;;4.23;;
4698;SDS011;33708;49.466;11.176;2023-09-30T02:19:31;12.23;;;4.27;;
4698;SDS011;33708;49.466;11.176;2023-09-30T02:21:58;13.33;;;3.97;;
4698;SDS011;33708;49.466;11.176;2023-09-30T02:24:24;11.90;;;4.17;;
4698;SDS011;33708;49.466;11.176;2023-09-30T02:26:50;10.70;;;3.83;;
4698;SDS011;33708;49.466;11.176;2023-09-30T02:29:16;9.70;;;3.60;;
4698;SDS011;33708;49.466;11.176;2023-09-30T02:31:41;15.10;;;5.37;;
4698;SDS011;33708;49.466;11.176;2023-09-30T02:34:07;8.87;;;3.93;;
4698;SDS011;33708;49.466;11.176;2023-09-30T02:36:33;11.90;;;4.87;;
4698;SDS011;33708;49.466;11.176;2023-09-30T02:39:04;11.43;;;4.73;;
4698;SDS011;33708;49.466;11.176;2023-09-30T02:41:29;12.30;;;4.93;;
4698;SDS011;33708;49.466;11.176;2023-09-30T02:43:55;11.67;;;4.37;;
4698;SDS011;33708;49.466;11.176;2023-09-30T02:46:21;10.37;;;4.40;;
4698;SDS011;33708;49.466;11.176;2023-09-30T02:48:46;12.10;;;4.77;;
4698;SDS011;33708;49.466;11.176;2023-09-30T02:51:12;12.03;;;4.90;;
4698;SDS011;33708;49.466;11.176;2023-09-30T02:53:37;12.87;;;4.83;;
4698;SDS011;33708;49.466;11.176;2023-09-30T02:56:03;12.07;;;4.63;;
4698;SDS011;33708;49.466;11.176;2023-09-30T02:58:29;15.40;;;4.13;;
4698;SDS011;33708;49.466;11.176;2023-09-30T03:00:55;9.10;;;4.17;;
4698;SDS011;33708;49.466;11.176;2023-09-30T03:03:21;8.80;;;3.70;;
4698;SDS011;33708;49.466;11.176;2023-09-30T03:05:47;12.70;;;4.07;;
4698;SDS011;33708;49.466;11.176;2023-09-30T03:08:15;9.63;;;3.30;;
4698;SDS011;33708;49.466;11.176;2023-09-30T03:10:40;8.27;;;3.40;;
4698;SDS011;33708;49.466;11.176;2023-09-30T03:13:06;8.10;;;3.17;;
4698;SDS011;33708;49.466;11.176;2023-09-30T03:15:34;9.20;;;3.33;;
4698;SDS011;33708;49.466;11.176;2023-09-30T03:18:00;9.97;;;3.47;;
4698;SDS011;33708;49.466;11.176;2023-09-30T03:20:26;7.17;;;2.70;;
4698;SDS011;33708;49.466;11.176;2023-09-30T03:22:52;7.33;;;3.23;;
4698;SDS011;33708;49.466;11.176;2023-09-30T03:25:18;7.47;;;3.37;;
4698;SDS011;33708;49.466;11.176;2023-09-30T03:27:46;6.03;;;2.70;;
4698;SDS011;33708;49.466;11.176;2023-09-30T03:30:12;5.83;;;2.83;;
4698;SDS011;33708;49.466;11.176;2023-09-30T03:32:41;6.13;;;2.60;;
4698;SDS011;33708;49.466;11.176;2023-09-30T03:35:08;7.90;;;3.10;;
4698;SDS011;33708;49.466;11.176;2023-09-30T03:37:42;6.33;;;3.13;;
4698;SDS011;33708;49.466;11.176;2023-09-30T03:40:09;5.53;;;2.77;;
4698;SDS011;33708;49.466;11.176;2023-09-30T03:42:44;6.30;;;2.43;;
4698;SDS011;33708;49.466;11.176;2023-09-30T03:45:12;5.30;;;2.50;;
4698;SDS011;33708;49.466;11.176;2023-09-30T03:47:39;8.00;;;3.30;;
4698;SDS011;33708;49.466;11.176;2023-09-30T03:50:06;8.63;;;3.10;;
4698;SDS011;33708;49.466;11.176;2023-09-30T03:52:39;7.60;;;3.03;;
4698;SDS011;33708;49.466;11.176;2023-09-30T03:55:08;12.10;;;3.50;;
4698;SDS011;33708;49.466;11.176;2023-09-30T03:57:37;7.67;;;2.57;;
4698;SDS011;33708;49.466;11.176;2023-09-30T04:00:03;7.13;;;3.13;;
4698;SDS011;33708;49.466;11.176;2023-09-30T04:02:31;8.10;;;3.60;;
4698;SDS011;33708;49.466;11.176;2023-09-30T04:04:57;8.23;;;3.00;;
4698;SDS011;33708;49.466;11.176;2023-09-30T04:07:24;8.67;;;3.20;;
4698;SDS011;33708;49.466;11.176;2023-09-30T04:09:52;6.63;;;2.83;;
4698;SDS011;33708;49.466;11.176;2023-09-30T04:12:22;7.97;;;3.13;;
4698;SDS011;33708;49.466;11.176;2023-09-30T04:14:48;8.43;;;3.03;;
4698;SDS011;33708;49.466;11.176;2023-09-30T04:17:14;6.07;;;2.30;;
4698;SDS011;33708;49.466;11.176;2023-09-30T04:19:40;7.23;;;3.00;;
4698;SDS011;33708;49.466;11.176;2023-09-30T04:22:05;5.80;;;2.67;;
4698;SDS011;33708;49.466;11.176;2023-09-30T04:24:31;7.57;;;2.60;;
4698;SDS011;33708;49.466;11.176;2023-09-30T04:26:57;6.43;;;2.67;;
4698;SDS011;33708;49.466;11.176;2023-09-30T04:29:28;10.07;;;3.13;;
4698;SDS011;33708;49.466;11.176;2023-09-30T04:31:54;8.37;;;3.33;;
4698;SDS011;33708;49.466;11.176;2023-09-30T04:34:22;9.37;;;3.00;;
4698;SDS011;33708;49.466;11.176;2023-09-30T04:36:48;10.87;;;2.77;;
4698;SDS011;33708;49.466;11.176;2023-09-30T04:39:14;7.10;;;2.87;;
4698;SDS011;33708;49.466;11.176;2023-09-30T04:41:40;8.40;;;2.40;;
4698;SDS011;33708;49.466;11.176;2023-09-30T04:44:07;7.77;;;2.70;;
4698;SDS011;33708;49.466;11.176;2023-09-30T04:46:34;6.63;;;2.80;;
4698;SDS011;33708;49.466;11.176;2023-09-30T04:49:10;7.83;;;2.43;;
4698;SDS011;33708;49.466;11.176;2023-09-30T04:51:40;5.33;;;2.47;;
4698;SDS011;33708;49.466;11.176;2023-09-30T04:54:05;6.90;;;2.70;;
4698;SDS011;33708;49.466;11.176;2023-09-30T04:56:34;7.37;;;2.53;;
4698;SDS011;33708;49.466;11.176;2023-09-30T04:59:00;8.43;;;2.20;;
4698;SDS011;33708;49.466;11.176;2023-09-30T05:01:27;6.40;;;2.33;;
4698;SDS011;33708;49.466;11.176;2023-09-30T05:03:53;7.93;;;2.50;;
4698;SDS011;33708;49.466;11.176;2023-09-30T05:06:19;6.90;;;2.90;;
4698;SDS011;33708;49.466;11.176;2023-09-30T05:08:46;6.53;;;2.40;;
4698;SDS011;33708;49.466;11.176;2023-09-30T05:11:12;11.30;;;3.23;;
4698;SDS011;33708;49.466;11.176;2023-09-30T05:13:39;6.60;;;2.33;;
4698;SDS011;33708;49.466;11.176;2023-09-30T05:16:04;7.07;;;2.87;;
4698;SDS011;33708;49.466;11.176;2023-09-30T05:18:32;7.47;;;2.20;;
4698;SDS011;33708;49.466;11.176;2023-09-30T05:20:58;7.37;;;2.40;;
4698;SDS011;33708;49.466;11.176;2023-09-30T05:23:23;7.93;;;2.87;;
4698;SDS011;33708;49.466;11.176;2023-09-30T05:25:50;4.30;;;2.03;;
4698;SDS011;33708;49.466;11.176;2023-09-30T05:28:16;6.33;;;2.30;;
4698;SDS011;33708;49.466;11.176;2023-09-30T05:30:41;5.43;;;2.63;;
4698;SDS011;33708;49.466;11.176;2023-09-30T05:33:08;6.47;;;2.30;;
4698;SDS011;33708;49.466;11.176;2023-09-30T05:35:39;5.07;;;2.20;;
4698;SDS011;33708;49.466;11.176;2023-09-30T05:38:06;3.97;;;1.90;;
4698;SDS011;33708;49.466;11.176;2023-09-30T05:40:32;6.67;;;2.23;;
4698;SDS011;33708;49.466;11.176;2023-09-30T05:42:58;7.03;;;2.33;;
4698;SDS011;33708;49.466;11.176;2023-09-30T05:45:24;6.07;;;2.10;;
4698;SDS011;33708;49.466;11.176;2023-09-30T05:47:51;9.43;;;1.73;;
4698;SDS011;33708;49.466;11.176;2023-09-30T05:50:18;7.20;;;2.20;;
4698;SDS011;33708;49.466;11.176;2023-09-30T05:52:50;6.50;;;2.67;;
4698;SDS011;33708;49.466;11.176;2023-09-30T05:55:19;8.47;;;2.80;;
4698;SDS011;33708;49.466;11.176;2023-09-30T05:57:45;5.20;;;2.50;;
4698;SDS011;33708;49.466;11.176;2023-09-30T06:00:13;5.50;;;2.50;;
4698;SDS011;33708;49.466;11.176;2023-09-30T06:03:08;6.20;;;2.60;;
4698;SDS011;33708;49.466;11.176;2023-09-30T06:05:38;5.50;;;2.27;;
4698;SDS011;33708;49.466;11.176;2023-09-30T06:08:07;6.70;;;2.80;;
4698;SDS011;33708;49.466;11.176;2023-09-30T06:10:39;6.20;;;2.00;;
4698;SDS011;33708;49.466;11.176;2023-09-30T06:13:07;6.13;;;2.47;;
4698;SDS011;33708;49.466;11.176;2023-09-30T06:15:34;5.20;;;2.73;;
4698;SDS011;33708;49.466;11.176;2023-09-30T06:18:05;7.80;;;2.40;;
4698;SDS011;33708;49.466;11.176;2023-09-30T06:20:31;4.40;;;1.90;;
4698;SDS011;33708;49.466;11.176;2023-09-30T06:22:58;5.80;;;2.13;;
4698;SDS011;33708;49.466;11.176;2023-09-30T06:25:25;6.43;;;2.23;;
4698;SDS011;33708;49.466;11.176;2023-09-30T06:27:52;4.60;;;2.20;;
4698;SDS011;33708;49.466;11.176;2023-09-30T06:30:22;6.20;;;2.23;;
4698;SDS011;33708;49.466;11.176;2023-09-30T06:32:54;5.07;;;1.87;;
4698;SDS011;33708;49.466;11.176;2023-09-30T06:35:25;4.50;;;2.00;;
4698;SDS011;33708;49.466;11.176;2023-09-30T06:37:55;6.77;;;2.30;;
4698;SDS011;33708;49.466;11.176;2023-09-30T06:40:20;6.60;;;2.10;;
4698;SDS011;33708;49.466;11.176;2023-09-30T06:42:47;6.73;;;2.00;;
4698;SDS011;33708;49.466;11.176;2023-09-30T06:45:12;8.07;;;2.30;;
4698;SDS011;33708;49.466;11.176;2023-09-30T06:47:39;4.40;;;2.43;;
4698;SDS011;33708;49.466;11.176;2023-09-30T06:50:09;9.83;;;2.37;;
4698;SDS011;33708;49.466;11.176;2023-09-30T06:52:38;8.47;;;2.23;;
4698;SDS011;33708;49.466;11.176;2023-09-30T06:55:05;5.90;;;2.40;;
4698;SDS011;33708;49.466;11.176;2023-09-30T06:57:32;6.10;;;2.57;;
4698;SDS011;33708;49.466;11.176;2023-09-30T06:59:58;4.37;;;2.43;;
4698;SDS011;33708;49.466;11.176;2023-09-30T07:02:24;7.53;;;2.63;;
4698;SDS011;33708;49.466;11.176;2023-09-30T07:04:49;6.77;;;2.40;;
4698;SDS011;33708;49.466;11.176;2023-09-30T07:07:15;6.40;;;2.60;;
4698;SDS011;33708;49.466;11.176;2023-09-30T07:09:41;7.27;;;2.60;;
4698;SDS011;33708;49.466;11.176;2023-09-30T07:12:08;7.47;;;2.57;;
4698;SDS011;33708;49.466;11.176;2023-09-30T07:14:34;6.87;;;2.33;;
4698;SDS011;33708;49.466;11.176;2023-09-30T07:16:59;5.80;;;2.77;;
4698;SDS011;33708;49.466;11.176;2023-09-30T07:19:25;5.10;;;2.50;;
4698;SDS011;33708;49.466;11.176;2023-09-30T07:21:51;6.67;;;2.37;;
4698;SDS011;33708;49.466;11.176;2023-09-30T07:24:16;5.33;;;2.00;;
4698;SDS011;33708;49.466;11.176;2023-09-30T07:26:42;9.60;;;2.90;;
4698;SDS011;33708;49.466;11.176;2023-09-30T07:29:08;6.37;;;2.80;;
4698;SDS011;33708;49.466;11.176;2023-09-30T07:31:35;5.60;;;2.53;;
4698;SDS011;33708;49.466;11.176;2023-09-30T07:34:01;5.33;;;2.00;;
4698;SDS011;33708;49.466;11.176;2023-09-30T07:36:27;6.90;;;2.57;;
4698;SDS011;33708;49.466;11.176;2023-09-30T07:38:53;9.60;;;2.63;;
4698;SDS011;33708;49.466;11.176;2023-09-30T07:41:19;5.57;;;2.13;;
4698;SDS011;33708;49.466;11.176;2023-09-30T07:43:45;6.53;;;2.33;;
4698;SDS011;33708;49.466;11.176;2023-09-30T07:46:10;7.40;;;2.97;;
4698;SDS011;33708;49.466;11.176;2023-09-30T07:48:36;10.93;;;3.37;;
4698;SDS011;33708;49.466;11.176;2023-09-30T07:51:01;7.87;;;3.17;;
4698;SDS011;33708;49.466;11.176;2023-09-30T07:53:28;7.43;;;2.80;;
4698;SDS011;33708;49.466;11.176;2023-09-30T07:55:54;6.23;;;3.03;;
4698;SDS011;33708;49.466;11.176;2023-09-30T07:58:19;9.77;;;3.13;;
4698;SDS011;33708;49.466;11.176;2023-09-30T08:00:45;8.63;;;3.20;;
4698;SDS011;33708;49.466;11.176;2023-09-30T08:03:11;8.20;;;3.30;;
4698;SDS011;33708;49.466;11.176;2023-09-30T08:05:37;9.03;;;3.30;;
4698;SDS011;33708;49.466;11.176;2023-09-30T08:08:03;7.40;;;2.93;;
4698;SDS011;33708;49.466;11.176;2023-09-30T08:10:29;10.53;;;2.57;;
4698;SDS011;33708;49.466;11.176;2023-09-30T08:12:57;9.30;;;3.40;;
4698;SDS011;33708;49.466;11.176;2023-09-30T08:15:23;6.97;;;3.33;;
4698;SDS011;33708;49.466;11.176;2023-09-30T08:17:49;7.30;;;3.30;;
4698;SDS011;33708;49.466;11.176;2023-09-30T08:20:15;6.70;;;2.80;;
4698;SDS011;33708;49.466;11.176;2023-09-30T08:22:41;6.57;;;2.90;;
4698;SDS011;33708;49.466;11.176;2023-09-30T08:25:07;7.00;;;3.13;;
4698;SDS011;33708;49.466;11.176;2023-09-30T08:27:33;5.63;;;2.50;;
4698;SDS011;33708;49.466;11.176;2023-09-30T08:30:01;8.20;;;2.80;;
4698;SDS011;33708;49.466;11.176;2023-09-30T08:32:31;7.97;;;2.73;;
4698;SDS011;33708;49.466;11.176;2023-09-30T08:35:00;10.70;;;2.93;;
4698;SDS011;33708;49.466;11.176;2023-09-30T08:37:29;6.93;;;2.60;;
4698;SDS011;33708;49.466;11.176;2023-09-30T08:39:56;6.43;;;2.87;;
4698;SDS011;33708;49.466;11.176;2023-09-30T08:42:22;6.67;;;2.73;;
4698;SDS011;33708;49.466;11.176;2023-09-30T08:44:49;6.87;;;2.87;;
4698;SDS011;33708;49.466;11.176;2023-09-30T08:47:19;7.73;;;2.97;;
4698;SDS011;33708;49.466;11.176;2023-09-30T08:49:45;9.23;;;2.90;;
4698;SDS011;33708;49.466;11.176;2023-09-30T08:52:13;12.40;;;2.87;;
4698;SDS011;33708;49.466;11.176;2023-09-30T08:54:39;8.33;;;3.50;;
4698;SDS011;33708;49.466;11.176;2023-09-30T08:57:05;10.33;;;3.00;;
4698;SDS011;33708;49.466;11.176;2023-09-30T08:59:34;8.10;;;3.30;;
4698;SDS011;33708;49.466;11.176;2023-09-30T09:02:07;5.60;;;2.80;;
4698;SDS011;33708;49.466;11.176;2023-09-30T09:04:34;8.03;;;2.90;;
4698;SDS011;33708;49.466;11.176;2023-09-30T09:07:01;6.23;;;3.20;;
4698;SDS011;33708;49.466;11.176;2023-09-30T09:09:27;7.53;;;2.90;;
4698;SDS011;33708;49.466;11.176;2023-09-30T09:11:52;6.33;;;2.97;;
4698;SDS011;33708;49.466;11.176;2023-09-30T09:14:18;8.77;;;2.90;;
4698;SDS011;33708;49.466;11.176;2023-09-30T09:16:56;7.77;;;3.20;;
4698;SDS011;33708;49.466;11.176;2023-09-30T09:19:22;6.47;;;3.00;;
4698;SDS011;33708;49.466;11.176;2023-09-30T09:22:00;11.23;;;3.00;;
4698;SDS011;33708;49.466;11.176;2023-09-30T09:24:33;7.37;;;2.80;;
4698;SDS011;33708;49.466;11.176;2023-09-30T09:27:06;5.93;;;2.63;;
4698;SDS011;33708;49.466;11.176;2023-09-30T09:29:33;7.43;;;3.23;;
4698;SDS011;33708;49.466;11.176;2023-09-30T09:32:33;6.60;;;3.03;;
4698;SDS011;33708;49.466;11.176;2023-09-30T09:34:59;7.20;;;2.70;;
4698;SDS011;33708;49.466;11.176;2023-09-30T09:37:26;6.77;;;2.80;;
4698;SDS011;33708;49.466;11.176;2023-09-30T09:39:53;9.20;;;3.30;;
4698;SDS011;33708;49.466;11.176;2023-09-30T09:42:24;10.53;;;3.37;;
4698;SDS011;33708;49.466;11.176;2023-09-30T09:44:51;7.60;;;2.90;;
4698;SDS011;33708;49.466;11.176;2023-09-30T09:47:31;8.77;;;3.00;;
4698;SDS011;33708;49.466;11.176;2023-09-30T09:49:58;8.03;;;3.07;;
4698;SDS011;33708;49.466;11.176;2023-09-30T09:52:24;10.67;;;3.30;;
4698;SDS011;33708;49.466;11.176;2023-09-30T09:54:51;7.00;;;3.23;;
4698;SDS011;33708;49.466;11.176;2023-09-30T09:57:18;6.80;;;2.30;;
4698;SDS011;33708;49.466;11.176;2023-09-30T09:59:44;6.67;;;3.00;;
4698;SDS011;33708;49.466;11.176;2023-09-30T10:02:14;8.60;;;3.50;;
4698;SDS011;33708;49.466;11.176;2023-09-30T10:04:42;8.73;;;3.07;;
4698;SDS011;33708;49.466;11.176;2023-09-30T10:07:16;8.40;;;2.80;;
4698;SDS011;33708;49.466;11.176;2023-09-30T10:09:47;8.17;;;3.20;;
4698;SDS011;33708;49.466;11.176;2023-09-30T10:12:15;8.20;;;2.73;;
4698;SDS011;33708;49.466;11.176;2023-09-30T10:14:43;9.57;;;3.27;;
4698;SDS011;33708;49.466;11.176;2023-09-30T10:17:09;8.10;;;3.70;;
4698;SDS011;33708;49.466;11.176;2023-09-30T10:19:35;7.40;;;3.20;;
4698;SDS011;33708;49.466;11.176;2023-09-30T10:24:45;12.70;;;3.60;;
4698;SDS011;33708;49.466;11.176;2023-09-30T10:35:16;4.70;;;2.13;;
4698;SDS011;33708;49.466;11.176;2023-09-30T10:37:46;7.73;;;3.03;;
4698;SDS011;33708;49.466;11.176;2023-09-30T10:40:26;8.77;;;2.87;;
4698;SDS011;33708;49.466;11.176;2023-09-30T10:42:53;6.80;;;3.50;;
4698;SDS011;33708;49.466;11.176;2023-09-30T10:45:42;8.53;;;3.80;;
4698;SDS011;33708;49.466;11.176;2023-09-30T10:50:50;9.37;;;3.40;;
4698;SDS011;33708;49.466;11.176;2023-09-30T10:53:21;12.73;;;3.87;;
4698;SDS011;33708;49.466;11.176;2023-09-30T10:55:52;13.30;;;3.83;;
4698;SDS011;33708;49.466;11.176;2023-09-30T10:58:20;7.83;;;3.13;;
4698;SDS011;33708;49.466;11.176;2023-09-30T11:00:52;10.37;;;3.80;;
4698;SDS011;33708;49.466;11.176;2023-09-30T11:03:19;11.37;;;3.80;;
4698;SDS011;33708;49.466;11.176;2023-09-30T11:05:50;9.40;;;3.60;;
4698;SDS011;33708;49.466;11.176;2023-09-30T11:08:19;9.03;;;3.30;;
4698;SDS011;33708;49.466;11.176;2023-09-30T11:10:50;11.10;;;4.50;;
4698;SDS011;33708;49.466;11.176;2023-09-30T11:13:16;13.73;;;3.67;;
4698;SDS011;33708;49.466;11.176;2023-09-30T11:15:43;11.20;;;3.80;;
4698;SDS011;33708;49.466;11.176;2023-09-30T11:18:18;7.57;;;3.50;;
4698;SDS011;33708;49.466;11.176;2023-09-30T11:20:44;8.33;;;2.97;;
4698;SDS011;33708;49.466;11.176;2023-09-30T11:23:13;9.40;;;3.70;;
4698;SDS011;33708;49.466;11.176;2023-09-30T11:25:40;8.63;;;3.77;;
4698;SDS011;33708;49.466;11.176;2023-09-30T11:28:18;7.60;;;3.37;;
4698;SDS011;33708;49.466;11.176;2023-09-30T11:30:57;7.40;;;3.80;;
4698;SDS011;33708;49.466;11.176;2023-09-30T11:33:24;9.93;;;3.83;;
4698;SDS011;33708;49.466;11.176;2023-09-30T11:38:23;14.40;;;4.07;;
4698;SDS011;33708;49.466;11.176;2023-09-30T11:41:02;10.40;;;4.00;;
4698;SDS011;33708;49.466;11.176;2023-09-30T11:43:31;6.90;;;3.07;;
4698;SDS011;33708;49.466;11.176;2023-09-30T11:46:07;9.00;;;3.27;;
4698;SDS011;33708;49.466;11.176;2023-09-30T11:48:39;8.30;;;3.63;;
4698;SDS011;33708;49.466;11.176;2023-09-30T11:51:21;13.60;;;3.27;;
4698;SDS011;33708;49.466;11.176;2023-09-30T11:53:49;7.93;;;3.47;;
4698;SDS011;33708;49.466;11.176;2023-09-30T11:56:15;8.13;;;2.90;;
4698;SDS011;33708;49.466;11.176;2023-09-30T11:58:41;11.23;;;3.80;;
4698;SDS011;33708;49.466;11.176;2023-09-30T12:01:07;8.90;;;2.97;;
4698;SDS011;33708;49.466;11.176;2023-09-30T12:03:35;7.63;;;3.50;;
4698;SDS011;33708;49.466;11.176;2023-09-30T12:06:04;8.13;;;3.47;;
4698;SDS011;33708;49.466;11.176;2023-09-30T12:08:38;8.30;;;3.10;;
4698;SDS011;33708;49.466;11.176;2023-09-30T12:11:04;9.10;;;3.13;;
4698;SDS011;33708;49.466;11.176;2023-09-30T12:13:30;7.30;;;3.17;;
4698;SDS011;33708;49.466;11.176;2023-09-30T12:15:56;8.33;;;3.57;;
4698;SDS011;33708;49.466;11.176;2023-09-30T12:18:22;8.60;;;3.20;;
4698;SDS011;33708;49.466;11.176;2023-09-30T12:20:52;9.40;;;3.80;;
4698;SDS011;33708;49.466;11.176;2023-09-30T12:23:18;6.50;;;3.30;;
4698;SDS011;33708;49.466;11.176;2023-09-30T12:25:45;9.43;;;3.80;;
4698;SDS011;33708;49.466;11.176;2023-09-30T12:28:11;8.93;;;3.87;;
4698;SDS011;33708;49.466;11.176;2023-09-30T12:30:38;11.70;;;4.50;;
4698;SDS011;33708;49.466;11.176;2023-09-30T12:33:05;26.93;;;4.20;;
4698;SDS011;33708;49.466;11.176;2023-09-30T12:35:31;7.40;;;3.60;;
4698;SDS011;33708;49.466;11.176;2023-09-30T12:37:57;11.27;;;3.90;;
4698;SDS011;33708;49.466;11.176;2023-09-30T12:40:23;11.00;;;4.20;;
4698;SDS011;33708;49.466;11.176;2023-09-30T12:42:48;8.10;;;4.07;;
4698;SDS011;33708;49.466;11.176;2023-09-30T12:45:14;8.53;;;3.60;;
4698;SDS011;33708;49.466;11.176;2023-09-30T12:47:39;9.40;;;3.90;;
4698;SDS011;33708;49.466;11.176;2023-09-30T12:50:05;9.13;;;3.90;;
4698;SDS011;33708;49.466;11.176;2023-09-30T12:52:34;16.93;;;3.33;;
4698;SDS011;33708;49.466;11.176;2023-09-30T12:55:00;10.13;;;4.03;;
4698;SDS011;33708;49.466;11.176;2023-09-30T12:57:25;10.07;;;4.37;;
4698;SDS011;33708;49.466;11.176;2023-09-30T12:59:51;9.03;;;3.43;;
4698;SDS011;33708;49.466;11.176;2023-09-30T13:02:18;11.93;;;3.50;;
4698;SDS011;33708;49.466;11.176;2023-09-30T13:04:44;9.50;;;4.00;;
4698;SDS011;33708;49.466;11.176;2023-09-30T13:07:11;11.33;;;4.33;;
4698;SDS011;33708;49.466;11.176;2023-09-30T13:09:38;9.20;;;3.60;;
4698;SDS011;33708;49.466;11.176;2023-09-30T13:12:04;11.10;;;3.97;;
4698;SDS011;33708;49.466;11.176;2023-09-30T13:14:30;7.87;;;3.63;;
4698;SDS011;33708;49.466;11.176;2023-09-30T13:16:56;8.83;;;3.50;;
4698;SDS011;33708;49.466;11.176;2023-09-30T13:19:21;8.90;;;4.03;;
4698;SDS011;33708;49.466;11.176;2023-09-30T13:21:48;10.33;;;4.57;;
4698;SDS011;33708;49.466;11.176;2023-09-30T13:24:15;10.50;;;3.60;;
4698;SDS011;33708;49.466;11.176;2023-09-30T13:26:41;15.80;;;4.43;;
4698;SDS011;33708;49.466;11.176;2023-09-30T13:29:06;11.83;;;4.20;;
4698;SDS011;33708;49.466;11.176;2023-09-30T13:31:35;9.10;;;4.00;;
4698;SDS011;33708;49.466;11.176;2023-09-30T13:34:06;9.83;;;4.33;;
4698;SDS011;33708;49.466;11.176;2023-09-30T13:36:32;10.60;;;4.10;;
4698;SDS011;33708;49.466;11.176;2023-09-30T13:38:58;12.17;;;4.00;;
4698;SDS011;33708;49.466;11.176;2023-09-30T13:41:24;9.80;;;3.97;;
4698;SDS011;33708;49.466;11.176;2023-09-30T13:43:49;9.90;;;4.10;;
4698;SDS011;33708;49.466;11.176;2023-09-30T13:46:15;11.57;;;4.83;;
4698;SDS011;33708;49.466;11.176;2023-09-30T13:48:41;12.20;;;3.93;;
4698;SDS011;33708;49.466;11.176;2023-09-30T13:51:07;11.43;;;4.53;;
4698;SDS011;33708;49.466;11.176;2023-09-30T13:53:33;12.23;;;4.03;;
4698;SDS011;33708;49.466;11.176;2023-09-30T13:55:59;11.30;;;4.30;;
4698;SDS011;33708;49.466;11.176;2023-09-30T13:58:25;11.27;;;4.40;;
4698;SDS011;33708;49.466;11.176;2023-09-30T14:00:51;8.07;;;3.97;;
4698;SDS011;33708;49.466;11.176;2023-09-30T14:03:21;11.40;;;4.20;;
4698;SDS011;33708;49.466;11.176;2023-09-30T14:05:49;12.60;;;4.17;;
4698;SDS011;33708;49.466;11.176;2023-09-30T14:08:15;9.37;;;4.27;;
4698;SDS011;33708;49.466;11.176;2023-09-30T14:10:41;8.10;;;4.30;;
4698;SDS011;33708;49.466;11.176;2023-09-30T14:13:09;9.13;;;4.43;;
4698;SDS011;33708;49.466;11.176;2023-09-30T14:15:35;9.20;;;4.10;;
4698;SDS011;33708;49.466;11.176;2023-09-30T14:18:01;9.33;;;4.17;;
4698;SDS011;33708;49.466;11.176;2023-09-30T14:20:28;8.57;;;4.07;;
4698;SDS011;33708;49.466;11.176;2023-09-30T14:22:53;8.90;;;4.20;;
4698;SDS011;33708;49.466;11.176;2023-09-30T14:25:22;15.83;;;4.80;;
4698;SDS011;33708;49.466;11.176;2023-09-30T14:27:48;9.80;;;4.73;;
4698;SDS011;33708;49.466;11.176;2023-09-30T14:30:14;12.03;;;4.43;;
4698;SDS011;33708;49.466;11.176;2023-09-30T14:32:40;9.67;;;4.23;;
4698;SDS011;33708;49.466;11.176;2023-09-30T14:35:07;8.83;;;3.93;;
4698;SDS011;33708;49.466;11.176;2023-09-30T14:37:34;10.40;;;4.37;;
4698;SDS011;33708;49.466;11.176;2023-09-30T14:40:01;13.20;;;4.50;;
4698;SDS011;33708;49.466;11.176;2023-09-30T14:42:30;13.13;;;4.90;;
4698;SDS011;33708;49.466;11.176;2023-09-30T14:44:56;12.20;;;5.10;;
4698;SDS011;33708;49.466;11.176;2023-09-30T14:47:22;11.03;;;4.50;;
4698;SDS011;33708;49.466;11.176;2023-09-30T14:49:48;11.67;;;4.00;;
4698;SDS011;33708;49.466;11.176;2023-09-30T14:52:14;11.67;;;4.93;;
4698;SDS011;33708;49.466;11.176;2023-09-30T14:54:40;9.10;;;4.30;;
4698;SDS011;33708;49.466;11.176;2023-09-30T14:57:06;11.33;;;4.23;;
4698;SDS011;33708;49.466;11.176;2023-09-30T14:59:34;10.70;;;5.23;;